Lueders, Texas
Current Conditions -  °F | °C
As of 5:52 AM on Thursday 27 Nov 2014 (Local Time) from KABI Reporting Station
Clear Clear  
Wind Chill: 34°   Ceiling: Unl
Heat Index: 38°   Visibility: 10mi
Dew Point: 27°   Wind: 5mph
Humidity: 65%   Direction: 100°E
Pressure: 30.47"   Gusts: NA
Location:  32.8°N, 99.62°W
Report Text: KABI 271152Z 10004KT 10SM CLR 03/M03 A3047 RMK AO2 SLP317 T00331028 10067 20011 51009
Loading
Personal Weather Stations






























Interactive Weather Map New forecast layout! Learn more

10-Day Weather Forecast

Advertisements
Track Severe Weather on mobile